createdAt,value
2018-09-03T00:00:39.777Z,0
2018-09-03T00:01:41.146Z,0
2018-09-03T00:02:42.513Z,0
2018-09-03T00:03:43.863Z,0
2018-09-03T00:04:45.222Z,0
2018-09-03T00:05:46.572Z,0
2018-09-03T00:06:47.938Z,0
2018-09-03T00:07:49.298Z,0
2018-09-03T00:08:50.658Z,0
2018-09-03T00:09:52.021Z,0
2018-09-03T00:10:53.373Z,0
2018-09-03T00:11:54.731Z,0
2018-09-03T00:12:56.091Z,0
2018-09-03T00:13:57.457Z,0
2018-09-03T00:14:58.817Z,0
2018-09-03T00:16:00.177Z,0
2018-09-03T00:17:01.531Z,0
2018-09-03T00:18:02.893Z,0
2018-09-03T00:19:04.259Z,0
2018-09-03T00:20:05.621Z,0
2018-09-03T00:21:06.979Z,0
2018-09-03T00:22:08.329Z,0
2018-09-03T00:23:09.707Z,0
2018-09-03T00:24:11.073Z,0
2018-09-03T00:25:12.422Z,0
2018-09-03T00:26:13.781Z,0
2018-09-03T00:27:15.142Z,0
2018-09-03T00:28:16.502Z,0
2018-09-03T00:29:17.857Z,0
2018-09-03T00:30:19.227Z,0
2018-09-03T00:31:20.581Z,0
2018-09-03T00:32:21.946Z,0
2018-09-03T00:33:23.297Z,0
2018-09-03T00:34:24.669Z,0
2018-09-03T00:35:26.023Z,0
2018-09-03T00:36:27.384Z,0
2018-09-03T00:37:28.742Z,0
2018-09-03T00:38:30.098Z,0
2018-09-03T00:39:31.453Z,0
2018-09-03T00:40:32.816Z,0
2018-09-03T00:41:34.169Z,0
2018-09-03T00:42:35.536Z,0
2018-09-03T00:43:36.897Z,0
2018-09-03T00:44:38.257Z,0
2018-09-03T00:45:39.618Z,0
2018-09-03T00:46:40.976Z,0
2018-09-03T00:47:42.343Z,0
2018-09-03T00:48:43.703Z,0
2018-09-03T00:49:45.060Z,0
2018-09-03T00:50:46.413Z,0
2018-09-03T00:51:47.788Z,0
2018-09-03T00:52:49.151Z,0
2018-09-03T00:53:50.574Z,0
2018-09-03T00:54:51.933Z,0
2018-09-03T00:55:53.298Z,0
2018-09-03T00:56:54.659Z,0
2018-09-03T00:57:56.018Z,0
2018-09-03T00:58:57.386Z,0
2018-09-03T00:59:58.739Z,0
2018-09-03T01:01:00.098Z,0
2018-09-03T01:02:01.453Z,0
2018-09-03T01:03:02.812Z,0
2018-09-03T01:04:04.173Z,0
2018-09-03T01:05:05.539Z,0
2018-09-03T01:06:06.979Z,0
2018-09-03T01:07:08.338Z,0
2018-09-03T01:08:09.725Z,0
2018-09-03T01:09:11.070Z,0
2018-09-03T01:10:12.427Z,0
2018-09-03T01:11:13.787Z,0
2018-09-03T01:12:15.149Z,0
2018-09-03T01:13:16.517Z,0
2018-09-03T01:14:17.878Z,0
2018-09-03T01:15:19.242Z,0
2018-09-03T01:16:20.598Z,0
2018-09-03T01:17:21.973Z,0
2018-09-03T01:18:23.328Z,0
2018-09-03T01:19:24.690Z,0
2018-09-03T01:20:26.049Z,0
2018-09-03T01:21:27.412Z,0
2018-09-03T01:22:28.772Z,0
2018-09-03T01:23:30.124Z,0
2018-09-03T01:24:31.489Z,0
2018-09-03T01:25:32.835Z,0
2018-09-03T01:26:34.199Z,0
2018-09-03T01:27:35.614Z,0
2018-09-03T01:28:36.976Z,0
2018-09-03T01:29:38.387Z,0
2018-09-03T01:30:39.704Z,0
2018-09-03T01:31:41.057Z,0
2018-09-03T01:32:42.424Z,0
2018-09-03T01:33:43.793Z,0
2018-09-03T01:34:45.164Z,0
2018-09-03T01:35:46.579Z,0
2018-09-03T01:36:47.923Z,0
2018-09-03T01:37:49.290Z,0
2018-09-03T01:38:50.672Z,0
2018-09-03T01:39:52.032Z,0
2018-09-03T01:40:53.423Z,0
2018-09-03T01:41:54.783Z,0
2018-09-03T01:42:56.140Z,0
2018-09-03T01:43:57.500Z,0
2018-09-03T01:44:58.858Z,0
2018-09-03T01:46:00.225Z,0
2018-09-03T01:47:02.097Z,0
2018-09-03T01:48:03.600Z,0
2018-09-03T01:49:05.094Z,0
2018-09-03T01:50:06.428Z,0
2018-09-03T01:51:07.797Z,0
2018-09-03T01:52:09.164Z,0
2018-09-03T01:53:10.524Z,0
2018-09-03T01:54:11.888Z,0
2018-09-03T01:55:13.249Z,0
2018-09-03T01:56:14.608Z,0
2018-09-03T01:57:15.974Z,0
2018-09-03T01:58:17.333Z,0
2018-09-03T01:59:18.729Z,0
2018-09-03T02:00:20.082Z,0
2018-09-03T02:01:21.439Z,0
2018-09-03T02:02:22.814Z,0
2018-09-03T02:03:24.197Z,0
2018-09-03T02:04:25.548Z,0
2018-09-03T02:05:26.913Z,0
2018-09-03T02:06:28.259Z,0
2018-09-03T02:07:29.627Z,0
2018-09-03T02:08:30.993Z,0
2018-09-03T02:09:32.353Z,0
2018-09-03T02:10:33.713Z,0
2018-09-03T02:11:35.075Z,0
2018-09-03T02:12:36.420Z,0
2018-09-03T02:13:37.785Z,0
2018-09-03T02:14:39.139Z,0
2018-09-03T02:15:40.495Z,0
2018-09-03T02:16:41.870Z,0
2018-09-03T02:17:43.232Z,0
2018-09-03T02:18:44.592Z,0
2018-09-03T02:19:45.948Z,0
2018-09-03T02:20:47.298Z,0
2018-09-03T02:21:48.664Z,0
2018-09-03T02:22:50.018Z,0
2018-09-03T02:23:51.392Z,0
2018-09-03T02:24:52.749Z,0
2018-09-03T02:25:54.102Z,0
2018-09-03T02:26:55.480Z,0
2018-09-03T02:27:56.850Z,0
2018-09-03T02:28:58.199Z,0
2018-09-03T02:29:59.565Z,0
2018-09-03T02:31:00.915Z,0
2018-09-03T02:32:02.275Z,0
2018-09-03T02:33:03.624Z,0
2018-09-03T02:34:04.993Z,0
2018-09-03T02:35:06.345Z,0
2018-09-03T02:36:07.710Z,0
2018-09-03T02:37:09.064Z,0
2018-09-03T02:38:10.434Z,0
2018-09-03T02:39:11.793Z,0
2018-09-03T02:40:13.135Z,0
2018-09-03T02:41:14.500Z,0
2018-09-03T02:42:15.858Z,0
2018-09-03T02:43:17.227Z,0
2018-09-03T02:44:18.580Z,0
2018-09-03T02:45:20.117Z,0
2018-09-03T02:46:21.490Z,0
2018-09-03T02:47:22.843Z,0
2018-09-03T02:48:24.208Z,0
2018-09-03T02:49:25.559Z,0
2018-09-03T02:50:26.925Z,0
2018-09-03T02:51:28.280Z,0
2018-09-03T02:52:29.645Z,0
2018-09-03T02:53:31.000Z,0
2018-09-03T02:54:32.366Z,0
2018-09-03T02:55:33.727Z,0
2018-09-03T02:56:35.083Z,0
2018-09-03T02:57:36.440Z,0
2018-09-03T02:58:37.805Z,0
2018-09-03T02:59:39.173Z,0
2018-09-03T03:00:40.534Z,0
2018-09-03T03:01:41.899Z,0
2018-09-03T03:02:43.253Z,0
2018-09-03T03:03:44.614Z,0
2018-09-03T03:04:45.976Z,0
2018-09-03T03:05:47.324Z,0
2018-09-03T03:06:48.697Z,0
2018-09-03T03:07:50.054Z,0
2018-09-03T03:58:47.459Z,0
2018-09-03T03:59:48.969Z,0
2018-09-03T04:00:50.322Z,0
2018-09-03T04:01:51.694Z,0
2018-09-03T04:02:53.058Z,0
2018-09-03T04:03:54.404Z,0
2018-09-03T04:04:55.772Z,0
2018-09-03T04:05:57.148Z,0
2018-09-03T04:06:58.508Z,0
2018-09-03T04:07:59.874Z,0
2018-09-03T04:09:01.220Z,0
2018-09-03T04:10:02.585Z,0
2018-09-03T04:11:03.954Z,0
2018-09-03T04:12:05.324Z,0
2018-09-03T04:13:06.686Z,0
2018-09-03T04:14:08.039Z,0
2018-09-03T04:15:09.404Z,0
2018-09-03T04:16:10.750Z,0
2018-09-03T04:17:12.111Z,0
2018-09-03T04:18:13.472Z,4
2018-09-03T04:19:14.822Z,4
2018-09-03T04:20:16.182Z,4
2018-09-03T04:21:17.545Z,4
2018-09-03T04:22:18.899Z,4
2018-09-03T04:23:20.414Z,4
2018-09-03T04:24:21.624Z,8
2018-09-03T04:25:22.996Z,8
2018-09-03T04:26:24.356Z,12
2018-09-03T04:27:25.724Z,12
2018-09-03T04:28:27.079Z,16
2018-09-03T04:29:28.436Z,16
2018-09-03T04:30:29.800Z,24
2018-09-03T04:31:31.185Z,24
2018-09-03T04:32:32.542Z,32
2018-09-03T04:33:33.919Z,36
2018-09-03T04:34:35.294Z,40
2018-09-03T04:35:36.660Z,44
2018-09-03T04:36:38.006Z,52
2018-09-03T04:37:39.401Z,56
2018-09-03T04:38:40.833Z,60
2018-09-03T04:39:42.127Z,64
2018-09-03T04:40:43.494Z,72
2018-09-03T04:41:44.847Z,80
2018-09-03T04:42:46.195Z,92
2018-09-03T04:43:47.571Z,100
2018-09-03T04:44:48.927Z,108
2018-09-03T04:45:50.311Z,120
2018-09-03T04:46:51.656Z,132
2018-09-03T04:47:53.062Z,144
2018-09-03T04:48:54.387Z,156
2018-09-03T04:49:55.747Z,172
2018-09-03T04:50:57.110Z,184
2018-09-03T04:51:58.472Z,200
2018-09-03T04:52:59.856Z,208
2018-09-03T04:54:01.221Z,220
2018-09-03T04:55:02.587Z,224
2018-09-03T04:56:03.946Z,228
2018-09-03T04:57:05.307Z,232
2018-09-03T04:58:06.673Z,236
2018-09-03T04:59:08.032Z,240
2018-09-03T05:00:09.393Z,248
2018-09-03T05:01:10.747Z,252
2018-09-03T05:02:12.122Z,256
2018-09-03T05:03:13.491Z,268
2018-09-03T05:04:14.853Z,280
2018-09-03T05:05:16.240Z,304
2018-09-03T05:06:17.595Z,340
2018-09-03T05:07:18.947Z,380
2018-09-03T05:08:20.321Z,424
2018-09-03T05:09:21.685Z,464
2018-09-03T05:10:23.042Z,512
2018-09-03T05:11:24.416Z,568
2018-09-03T05:12:25.779Z,644
2018-09-03T05:13:27.147Z,732
2018-09-03T05:14:28.509Z,812
2018-09-03T05:15:29.877Z,892
2018-09-03T05:16:31.242Z,964
2018-09-03T05:17:32.592Z,1024
2018-09-03T05:18:34.010Z,1080
2018-09-03T05:19:35.373Z,1136
2018-09-03T05:20:36.738Z,1192
2018-09-03T05:21:38.106Z,1240
2018-09-03T05:22:39.486Z,1296
2018-09-03T05:23:40.847Z,1332
2018-09-03T05:24:42.215Z,1356
2018-09-03T05:25:43.576Z,1368
2018-09-03T05:26:44.932Z,1376
2018-09-03T05:27:46.803Z,1380
2018-09-03T05:28:48.171Z,1408
2018-09-03T05:29:49.572Z,1444
2018-09-03T05:30:50.952Z,1460
2018-09-03T05:31:52.317Z,1464
2018-09-03T05:32:53.681Z,1480
2018-09-03T05:33:55.038Z,1504
2018-09-03T05:34:56.403Z,1532
2018-09-03T05:35:57.766Z,1568
2018-09-03T05:36:59.136Z,1612
2018-09-03T05:38:00.497Z,1660
2018-09-03T05:39:01.879Z,1712
2018-09-03T05:40:03.228Z,1764
2018-09-03T05:41:04.590Z,1840
2018-09-03T05:42:05.956Z,1940
2018-09-03T05:43:07.371Z,2052
2018-09-03T05:44:08.654Z,2168
2018-09-03T05:45:10.027Z,2264
2018-09-03T05:46:11.398Z,2304
2018-09-03T05:47:12.744Z,2316
2018-09-03T05:48:14.106Z,2368
2018-09-03T05:49:15.983Z,2460
2018-09-03T05:50:16.982Z,2604
2018-09-03T05:51:18.133Z,2724
2018-09-03T05:52:19.496Z,2740
2018-09-03T05:53:20.853Z,2676
2018-09-03T05:54:22.217Z,2616
2018-09-03T05:55:23.586Z,2584
2018-09-03T05:56:24.944Z,2548
2018-09-03T05:57:26.326Z,2524
2018-09-03T05:58:27.692Z,2544
2018-09-03T05:59:29.056Z,2568
2018-09-03T06:00:30.424Z,2596
2018-09-03T06:01:31.791Z,2608
2018-09-03T06:02:33.164Z,2612
2018-09-03T06:03:34.518Z,2672
2018-09-03T06:04:35.879Z,2808
2018-09-03T06:05:37.251Z,2980
2018-09-03T06:06:38.648Z,3148
2018-09-03T06:07:40.007Z,3288
2018-09-03T06:08:41.390Z,3392
2018-09-03T06:09:42.741Z,3472
2018-09-03T06:10:44.102Z,3564
2018-09-03T06:11:45.474Z,3716
2018-09-03T06:12:46.852Z,3900
2018-09-03T06:13:48.212Z,3988
2018-09-03T06:14:49.589Z,3976
2018-09-03T06:15:50.971Z,3876
2018-09-03T06:16:52.342Z,3808
2018-09-03T06:17:53.771Z,3916
2018-09-03T06:18:55.076Z,4084
2018-09-03T06:19:56.437Z,4252
2018-09-03T06:20:57.808Z,4356
2018-09-03T06:21:59.177Z,4352
2018-09-03T06:23:00.552Z,4312
2018-09-03T06:24:01.902Z,4408
2018-09-03T06:25:03.276Z,4776
2018-09-03T06:26:04.636Z,5508
2018-09-03T06:27:06.003Z,6624
2018-09-03T06:28:07.397Z,7852
2018-09-03T06:29:08.809Z,8860
2018-09-03T06:30:10.174Z,9156
2018-09-03T06:31:11.541Z,8852
2018-09-03T06:32:12.908Z,8224
2018-09-03T06:33:14.271Z,7648
2018-09-03T06:34:15.638Z,7156
2018-09-03T06:35:17.009Z,6744
2018-09-03T06:36:18.372Z,6456
2018-09-03T06:37:19.760Z,6312
2018-09-03T06:38:21.118Z,6356
2018-09-03T06:39:22.502Z,6620
2018-09-03T06:40:23.875Z,6852
2018-09-03T06:41:25.222Z,6740
2018-09-03T06:42:26.595Z,6604
2018-09-03T06:43:27.964Z,6496
2018-09-03T06:44:29.330Z,6316
2018-09-03T06:45:30.679Z,6136
2018-09-03T06:46:32.067Z,6148
2018-09-03T06:47:33.436Z,6208
2018-09-03T06:48:34.818Z,6364
2018-09-03T06:49:36.189Z,7104
2018-09-03T06:50:37.557Z,8620
2018-09-03T06:51:38.928Z,10940
2018-09-03T06:52:40.363Z,13408
2018-09-03T06:53:41.667Z,16056
2018-09-03T06:54:43.043Z,17696
2018-09-03T06:55:44.416Z,17108
2018-09-03T06:56:45.793Z,15468
2018-09-03T06:57:47.181Z,13828
2018-09-03T06:58:48.546Z,12496
2018-09-03T06:59:49.913Z,11892
2018-09-03T07:00:51.297Z,11628
2018-09-03T07:01:52.658Z,11432
2018-09-03T07:02:54.034Z,11224
2018-09-03T07:03:55.411Z,10996
2018-09-03T07:04:56.781Z,10644
2018-09-03T07:05:58.147Z,10140
2018-09-03T07:06:59.507Z,10020
2018-09-03T07:08:00.892Z,10288
2018-09-03T07:09:02.257Z,10508
2018-09-03T07:10:03.627Z,10444
2018-09-03T07:11:05.019Z,9968
2018-09-03T07:12:06.388Z,9196
2018-09-03T07:13:07.754Z,8480
2018-09-03T07:14:09.126Z,8264
2018-09-03T07:15:10.490Z,8536
2018-09-03T07:16:11.867Z,9108
2018-09-03T07:17:13.269Z,10680
2018-09-03T07:18:14.642Z,12404
2018-09-03T07:19:16.019Z,19232
2018-09-03T07:20:17.391Z,40224
2018-09-03T07:21:18.762Z,21760
2018-09-03T07:22:20.131Z,48544
2018-09-03T07:23:21.497Z,31808
2018-09-03T07:24:22.872Z,31104
2018-09-03T07:25:24.240Z,29984
2018-09-03T07:26:25.744Z,28128
2018-09-03T07:27:27.121Z,25216
2018-09-03T07:28:28.498Z,22240
2018-09-03T07:29:29.867Z,20064
2018-09-03T07:30:31.236Z,18464
2018-09-03T07:31:32.641Z,16672
2018-09-03T07:32:34.030Z,15216
2018-09-03T07:33:35.398Z,15212
2018-09-03T07:34:36.764Z,14264
2018-09-03T07:35:38.168Z,12644
2018-09-03T07:36:39.524Z,11324
2018-09-03T07:37:40.893Z,10740
2018-09-03T07:38:42.267Z,10716
2018-09-03T07:39:43.624Z,11068
2018-09-03T07:40:45.015Z,10848
2018-09-03T07:41:46.391Z,11164
2018-09-03T07:42:47.757Z,11960
2018-09-03T07:43:49.128Z,12744
2018-09-03T07:44:50.504Z,14392
2018-09-03T07:45:51.887Z,16404
2018-09-03T07:46:53.257Z,18688
2018-09-03T07:47:54.623Z,20672
2018-09-03T07:48:56.003Z,21856
2018-09-03T07:49:57.383Z,21664
2018-09-03T07:50:58.791Z,19712
2018-09-03T07:52:00.123Z,16064
2018-09-03T07:53:01.513Z,13240
2018-09-03T07:54:02.882Z,11636
2018-09-03T07:55:04.261Z,11016
2018-09-03T07:56:05.609Z,10784
2018-09-03T07:57:07.000Z,10656
2018-09-03T07:58:08.373Z,10048
2018-09-03T07:59:09.735Z,9424
2018-09-03T08:00:11.133Z,9156
2018-09-03T08:01:12.561Z,9604
2018-09-03T08:02:13.856Z,10592
2018-09-03T08:03:15.241Z,10704
2018-09-03T08:04:16.613Z,10596
2018-09-03T08:05:17.987Z,10944
2018-09-03T08:06:19.358Z,11000
2018-09-03T08:07:20.739Z,10972
2018-09-03T08:08:22.097Z,10944
2018-09-03T08:09:23.474Z,10796
2018-09-03T08:10:24.842Z,10684
2018-09-03T08:11:26.214Z,10532
2018-09-03T08:12:27.617Z,10436
2018-09-03T08:13:28.998Z,10484
2018-09-03T08:14:30.380Z,10668
2018-09-03T08:15:31.749Z,11232
2018-09-03T08:16:33.113Z,12164
2018-09-03T08:17:34.481Z,13480
2018-09-03T08:18:35.854Z,15176
2018-09-03T08:19:37.214Z,16976
2018-09-03T08:20:38.588Z,18272
2018-09-03T08:21:39.965Z,18816
2018-09-03T08:22:41.330Z,19296
2018-09-03T08:23:42.726Z,20320
2018-09-03T08:24:44.099Z,23136
2018-09-03T08:25:45.463Z,26784
2018-09-03T08:26:46.834Z,27104
2018-09-03T08:27:48.209Z,25024
2018-09-03T08:28:49.580Z,23072
2018-09-03T08:29:50.951Z,23232
2018-09-03T08:30:52.326Z,25632
2018-09-03T08:31:53.703Z,27904
2018-09-03T08:32:55.083Z,28864
2018-09-03T08:33:58.298Z,27136
2018-09-03T08:34:59.923Z,25056
2018-09-03T08:36:02.183Z,24544
2018-09-03T08:37:03.551Z,25312
2018-09-03T08:38:04.876Z,26176
2018-09-03T08:39:06.330Z,26912
2018-09-03T08:40:07.656Z,27744
2018-09-03T08:41:09.014Z,29600
2018-09-03T08:42:10.399Z,30208
2018-09-03T08:43:11.785Z,28224
2018-09-03T08:44:13.214Z,27072
2018-09-03T08:45:14.592Z,27424
2018-09-03T08:46:16.559Z,27520
2018-09-03T08:47:17.924Z,28160
2018-09-03T08:48:19.291Z,28960
2018-09-03T08:49:20.670Z,29152
2018-09-03T08:50:22.086Z,28992
2018-09-03T08:51:23.381Z,27872
2018-09-03T08:52:24.763Z,25632
2018-09-03T08:53:26.156Z,22912
2018-09-03T08:54:27.554Z,20704
2018-09-03T08:55:28.913Z,18880
2018-09-03T08:56:30.291Z,16904
2018-09-03T08:57:31.676Z,15432
2018-09-03T08:58:33.052Z,14980
2018-09-03T08:59:34.421Z,15268
2018-09-03T09:00:35.803Z,15648
2018-09-03T09:01:37.170Z,15948
2018-09-03T09:02:38.551Z,16148
2018-09-03T09:03:39.921Z,16576
2018-09-03T09:04:41.315Z,17240
2018-09-03T09:05:42.680Z,18144
2018-09-03T09:06:44.055Z,18528
2018-09-03T09:07:45.425Z,18272
2018-09-03T09:08:46.760Z,17280
2018-09-03T09:09:48.121Z,16548
2018-09-03T09:10:49.491Z,16096
2018-09-03T09:11:50.932Z,15988
2018-09-03T09:12:52.219Z,15952
2018-09-03T09:13:53.594Z,16164
2018-09-03T09:14:54.964Z,16500
2018-09-03T09:15:56.331Z,17096
2018-09-03T09:16:57.705Z,18144
2018-09-03T09:17:59.067Z,19232
2018-09-03T09:19:00.451Z,20448
2018-09-03T09:20:01.830Z,21408
2018-09-03T09:21:03.197Z,22208
2018-09-03T09:22:04.570Z,22688
2018-09-03T09:23:05.939Z,22720
2018-09-03T09:24:07.361Z,22464
2018-09-03T09:25:08.817Z,21728
2018-09-03T09:26:10.075Z,21216
2018-09-03T09:27:11.449Z,21056
2018-09-03T09:28:12.829Z,21344
2018-09-03T09:29:14.191Z,21792
2018-09-03T09:30:16.159Z,22336
2018-09-03T09:31:17.530Z,22784
2018-09-03T09:32:18.906Z,24000
2018-09-03T09:33:20.276Z,24928
2018-09-03T09:34:21.680Z,25696
2018-09-03T09:35:23.064Z,25760
2018-09-03T09:36:24.452Z,24896
2018-09-03T09:37:25.835Z,23968
2018-09-03T09:38:27.205Z,23232
2018-09-03T09:39:28.577Z,23392
2018-09-03T09:40:29.954Z,24416
2018-09-03T09:41:31.349Z,25696
2018-09-03T09:42:32.726Z,25504
2018-09-03T09:43:34.106Z,25184
2018-09-03T09:44:35.474Z,23520
2018-09-03T09:45:36.849Z,21472
2018-09-03T09:46:38.224Z,19744
2018-09-03T09:47:39.636Z,18624
2018-09-03T09:48:41.011Z,17580
2018-09-03T09:49:42.390Z,17240
2018-09-03T09:50:43.779Z,17452
2018-09-03T09:51:45.164Z,18080
2018-09-03T09:52:46.536Z,17700
2018-09-03T09:53:47.921Z,16972
2018-09-03T09:54:49.326Z,16340
2018-09-03T09:55:50.687Z,16272
2018-09-03T09:56:52.074Z,17456
2018-09-03T09:57:53.437Z,19200
2018-09-03T09:58:54.817Z,20608
2018-09-03T09:59:56.185Z,22432
2018-09-03T10:00:57.619Z,25120
2018-09-03T10:01:58.991Z,28096
2018-09-03T10:03:00.367Z,28864
2018-09-03T10:04:01.749Z,27680
2018-09-03T10:05:03.180Z,25120
2018-09-03T10:06:04.545Z,24288
2018-09-03T10:07:05.910Z,24256
2018-09-03T10:08:07.305Z,25856
2018-09-03T10:09:08.718Z,27776
2018-09-03T10:10:10.086Z,28352
2018-09-03T10:11:11.455Z,25472
2018-09-03T10:12:12.831Z,23616
2018-09-03T10:13:14.207Z,22272
2018-09-03T10:14:15.580Z,20800
2018-09-03T10:15:16.959Z,20352
2018-09-03T10:16:18.386Z,20480
2018-09-03T10:17:19.745Z,22528
2018-09-03T10:18:21.130Z,27072
2018-09-03T10:19:22.522Z,33056
2018-09-03T10:20:23.909Z,38496
2018-09-03T10:21:25.277Z,40416
2018-09-03T10:22:26.646Z,40768
2018-09-03T10:23:28.020Z,46368
2018-09-03T10:24:29.389Z,43808
2018-09-03T10:25:30.766Z,45088
2018-09-03T10:26:32.137Z,43200
2018-09-03T10:27:33.513Z,42720
2018-09-03T10:28:34.885Z,45312
2018-09-03T10:29:36.276Z,53536
2018-09-03T10:30:37.693Z,92736
2018-09-03T10:31:39.080Z,68864
2018-09-03T10:32:40.446Z,62016
2018-09-03T10:33:41.831Z,48992
2018-09-03T10:34:43.195Z,49184
2018-09-03T10:35:44.580Z,48160
2018-09-03T10:36:45.981Z,65248
2018-09-03T10:37:47.352Z,69920
2018-09-03T10:38:48.747Z,82880
2018-09-03T10:39:50.153Z,80576
2018-09-03T10:40:51.522Z,72800
2018-09-03T10:41:52.907Z,69344
2018-09-03T10:42:54.281Z,77952
2018-09-03T10:43:55.667Z,111328
2018-09-03T10:44:57.036Z,119168
2018-09-03T10:45:58.422Z,143424
2018-09-03T10:46:59.847Z,131712
2018-09-03T10:48:01.207Z,114496
2018-09-03T10:49:02.603Z,103872
2018-09-03T10:50:03.990Z,98464
2018-09-03T10:51:05.357Z,89472
2018-09-03T10:52:06.727Z,94592
2018-09-03T10:53:08.125Z,104000
2018-09-03T10:54:09.511Z,111104
2018-09-03T10:55:10.890Z,126720
2018-09-03T10:56:12.315Z,114816
2018-09-03T10:57:13.668Z,106656
2018-09-03T10:58:15.072Z,113312
2018-09-03T10:59:16.460Z,120128
2018-09-03T11:00:17.840Z,121504
2018-09-03T11:01:19.223Z,133984
2018-09-03T11:02:20.617Z,94560
2018-09-03T11:03:22.002Z,80864
2018-09-03T11:04:23.418Z,63168
2018-09-03T11:05:24.807Z,68352
2018-09-03T11:06:26.201Z,123520
2018-09-03T11:07:36.052Z,74016
2018-09-03T11:08:37.426Z,51680
2018-09-03T11:09:38.820Z,48768
2018-09-03T11:10:40.212Z,50080
2018-09-03T11:11:41.599Z,47520
2018-09-03T11:12:42.981Z,41472
2018-09-03T11:13:44.366Z,37344
2018-09-03T11:14:45.756Z,34816
2018-09-03T11:15:47.141Z,33504
2018-09-03T11:16:48.516Z,32864
2018-09-03T11:17:49.893Z,31744
2018-09-03T11:18:51.281Z,32672
2018-09-03T11:19:52.664Z,36064
2018-09-03T11:20:54.041Z,41248
2018-09-03T11:21:55.425Z,47168
2018-09-03T11:22:56.802Z,54304
2018-09-03T11:23:58.198Z,55200
2018-09-03T11:24:59.560Z,44544
2018-09-03T11:26:00.937Z,45088
2018-09-03T11:27:02.326Z,47072
2018-09-03T11:28:03.702Z,54656
2018-09-03T11:29:05.088Z,124704
2018-09-03T11:30:06.468Z,97440
2018-09-03T11:31:07.842Z,106784
2018-09-03T11:32:09.237Z,130912
2018-09-03T11:33:10.623Z,132960
2018-09-03T11:34:12.011Z,134080
2018-09-03T11:35:13.408Z,82240
2018-09-03T11:36:14.783Z,59552
2018-09-03T11:37:16.173Z,55488
2018-09-03T11:38:17.559Z,51040
2018-09-03T11:39:18.961Z,47136
2018-09-03T11:40:20.348Z,45248
2018-09-03T11:41:21.732Z,44896
2018-09-03T11:42:23.108Z,41728
2018-09-03T11:43:24.491Z,41248
2018-09-03T11:44:25.870Z,41152
2018-09-03T11:45:27.257Z,40288
2018-09-03T11:46:28.639Z,33920
2018-09-03T11:47:30.012Z,31488
2018-09-03T11:48:31.397Z,29472
2018-09-03T11:49:32.798Z,30144
2018-09-03T11:50:34.177Z,23872
2018-09-03T11:51:35.563Z,22368
2018-09-03T11:52:36.955Z,21792
2018-09-03T11:53:38.349Z,22720
2018-09-03T11:54:39.720Z,24768
2018-09-03T11:55:41.098Z,27168
2018-09-03T11:56:42.502Z,30496
2018-09-03T11:57:43.866Z,33216
2018-09-03T11:58:45.251Z,37088
2018-09-03T11:59:46.628Z,49632
2018-09-03T12:00:48.001Z,53632
2018-09-03T12:01:49.387Z,85120
2018-09-03T12:02:51.109Z,84128
2018-09-03T12:03:52.512Z,69952
2018-09-03T12:04:53.903Z,91744
2018-09-03T12:05:55.288Z,66976
2018-09-03T12:06:56.674Z,61984
2018-09-03T12:07:58.058Z,63680
2018-09-03T12:08:59.434Z,56512
2018-09-03T12:10:00.818Z,49376
2018-09-03T12:11:02.202Z,45216
2018-09-03T12:12:03.586Z,44864
2018-09-03T12:13:04.972Z,45376
2018-09-03T12:14:06.347Z,48672
2018-09-03T12:15:07.724Z,47232
2018-09-03T12:16:09.254Z,45152
2018-09-03T12:17:10.636Z,44352
2018-09-03T12:18:12.012Z,43680
2018-09-03T12:19:13.461Z,43424
2018-09-03T12:20:14.852Z,42976
2018-09-03T12:21:16.315Z,41440
2018-09-03T12:22:17.616Z,37984
2018-09-03T12:23:18.989Z,31968
2018-09-03T12:24:20.386Z,26976
2018-09-03T12:25:21.778Z,23264
2018-09-03T12:26:23.153Z,21312
2018-09-03T12:27:24.533Z,21056
2018-09-03T12:28:25.916Z,21440
2018-09-03T12:29:27.288Z,21312
2018-09-03T12:30:28.669Z,21056
2018-09-03T12:31:30.072Z,20096
2018-09-03T12:32:31.448Z,19744
2018-09-03T12:33:32.837Z,20320
2018-09-03T12:34:34.212Z,22016
2018-09-03T12:35:35.580Z,23008
2018-09-03T12:36:36.953Z,24096
2018-09-03T12:37:38.327Z,25312
2018-09-03T12:38:39.709Z,26560
2018-09-03T12:39:41.113Z,29696
2018-09-03T12:40:42.613Z,39360
2018-09-03T12:41:43.994Z,31328
2018-09-03T12:42:45.427Z,31200
2018-09-03T12:43:46.841Z,30944
2018-09-03T12:44:48.242Z,30208
2018-09-03T12:45:49.634Z,29216
2018-09-03T12:46:51.009Z,28064
2018-09-03T12:47:52.388Z,27776
2018-09-03T12:48:53.772Z,29248
2018-09-03T12:49:55.143Z,30080
2018-09-03T12:50:56.587Z,30720
2018-09-03T12:51:57.985Z,31680
2018-09-03T12:52:59.367Z,33408
2018-09-03T12:54:00.752Z,34656
2018-09-03T12:55:02.129Z,35648
2018-09-03T12:56:03.504Z,36704
2018-09-03T12:57:04.898Z,38976
2018-09-03T12:58:07.237Z,38816
2018-09-03T12:59:08.618Z,38112
2018-09-03T13:00:09.989Z,39808
2018-09-03T13:01:11.359Z,40640
2018-09-03T13:02:12.744Z,39296
2018-09-03T13:03:14.155Z,38368
2018-09-03T13:04:15.474Z,37504
2018-09-03T13:05:16.862Z,42528
2018-09-03T13:06:18.261Z,34400
2018-09-03T13:07:19.616Z,33440
2018-09-03T13:08:20.994Z,33376
2018-09-03T13:09:22.379Z,34208
2018-09-03T13:10:23.764Z,33824
2018-09-03T13:11:25.138Z,32512
2018-09-03T13:12:26.536Z,31104
2018-09-03T13:13:27.908Z,30304
2018-09-03T13:14:29.292Z,30176
2018-09-03T13:15:30.662Z,31072
2018-09-03T13:16:32.070Z,32096
2018-09-03T13:17:33.452Z,33248
2018-09-03T13:18:34.821Z,34208
2018-09-03T13:19:36.203Z,34848
2018-09-03T13:20:37.582Z,35072
2018-09-03T13:21:38.953Z,34208
2018-09-03T13:22:40.347Z,33472
2018-09-03T13:23:41.724Z,32800
2018-09-03T13:24:43.162Z,31456
2018-09-03T13:25:44.514Z,30336
2018-09-03T13:26:45.897Z,30048
2018-09-03T13:27:47.282Z,32032
2018-09-03T13:28:48.663Z,37408
2018-09-03T13:29:50.040Z,42560
2018-09-03T13:30:51.495Z,48128
2018-09-03T13:31:52.822Z,50816
2018-09-03T13:32:54.197Z,43200
2018-09-03T13:33:55.578Z,49888
2018-09-03T13:34:56.974Z,53632
2018-09-03T13:35:58.408Z,74592
2018-09-03T13:36:59.737Z,81504
2018-09-03T13:38:01.113Z,86688
2018-09-03T13:39:02.589Z,90560
2018-09-03T13:40:03.976Z,78016
2018-09-03T13:41:05.354Z,57088
2018-09-03T13:42:06.909Z,34304
2018-09-03T13:43:08.290Z,27840
2018-09-03T13:44:09.688Z,23776
2018-09-03T13:45:11.082Z,21600
2018-09-03T13:46:12.467Z,20640
2018-09-03T13:47:13.972Z,20576
2018-09-03T13:48:15.488Z,20544
2018-09-03T13:49:16.852Z,20448
2018-09-03T13:50:18.242Z,20512
2018-09-03T13:51:19.638Z,20704
2018-09-03T13:52:21.040Z,21344
2018-09-03T13:53:22.445Z,22560
2018-09-03T13:54:23.845Z,24352
2018-09-03T13:55:25.227Z,24928
2018-09-03T13:56:26.658Z,24896
2018-09-03T13:57:28.084Z,24896
2018-09-03T13:58:29.483Z,26048
2018-09-03T13:59:30.863Z,26944
2018-09-03T14:00:32.233Z,31904
2018-09-03T14:01:33.613Z,25280
2018-09-03T14:02:34.983Z,21408
2018-09-03T14:03:37.278Z,18240
2018-09-03T14:04:38.662Z,18432
2018-09-03T14:05:40.043Z,17984
2018-09-03T14:06:41.448Z,17888
2018-09-03T14:07:42.824Z,17020
2018-09-03T14:08:44.198Z,15908
2018-09-03T14:09:45.656Z,14992
2018-09-03T14:10:46.987Z,14288
2018-09-03T14:11:48.370Z,13796
2018-09-03T14:12:49.740Z,12664
2018-09-03T14:13:51.127Z,11332
2018-09-03T14:14:52.519Z,10276
2018-09-03T14:15:53.895Z,8980
2018-09-03T14:16:55.262Z,7624
2018-09-03T14:17:56.637Z,6572
2018-09-03T14:18:58.014Z,5920
2018-09-03T14:19:59.429Z,5380
2018-09-03T14:21:00.807Z,4880
2018-09-03T14:22:02.185Z,4536
2018-09-03T14:23:03.561Z,4436
2018-09-03T14:24:04.934Z,4440
2018-09-03T14:25:06.308Z,4516
2018-09-03T14:26:07.690Z,4628
2018-09-03T14:27:09.060Z,4676
2018-09-03T14:28:10.430Z,4644
2018-09-03T14:29:11.801Z,4728
2018-09-03T14:30:13.210Z,4892
2018-09-03T14:31:14.569Z,5148
2018-09-03T14:32:15.986Z,5408
2018-09-03T14:33:17.359Z,5344
2018-09-03T14:34:18.730Z,5260
2018-09-03T14:35:20.109Z,5584